createdAt,value
2023-03-28T00:02:17.168Z,99137.38
2023-03-28T00:04:44.292Z,99127.00
2023-03-28T00:07:11.983Z,99124.22
2023-03-28T00:09:38.977Z,99137.19
2023-03-28T00:12:06.304Z,99135.47
2023-03-28T00:14:35.656Z,99128.59
2023-03-28T00:17:02.645Z,99137.13
2023-03-28T00:19:33.256Z,99101.28
2023-03-28T00:22:00.614Z,99097.84
2023-03-28T00:24:28.123Z,99150.06
2023-03-28T00:26:55.099Z,99145.59
2023-03-28T00:29:23.091Z,99138.47
2023-03-28T00:31:51.639Z,99143.50
2023-03-28T00:34:18.899Z,99146.06
2023-03-28T00:36:45.935Z,99151.97
2023-03-28T00:39:14.450Z,99155.41
2023-03-28T00:41:44.195Z,99148.28
2023-03-28T00:44:48.970Z,99158.88
2023-03-28T00:47:28.041Z,99165.44
2023-03-28T00:50:13.231Z,99172.09
2023-03-28T00:52:47.549Z,99173.63
2023-03-28T00:55:19.324Z,99173.59
2023-03-28T00:57:49.112Z,99170.78
2023-03-28T01:00:19.128Z,99175.06
2023-03-28T01:02:53.591Z,99183.66
2023-03-28T01:05:26.511Z,99178.44
2023-03-28T01:07:59.312Z,99176.66
2023-03-28T01:10:26.535Z,99079.00
2023-03-28T01:12:56.390Z,99190.31
2023-03-28T01:15:24.332Z,99199.75
2023-03-28T01:18:03.083Z,99174.41
2023-03-28T01:20:42.305Z,99145.56
2023-03-28T01:23:33.984Z,99198.63
2023-03-28T01:26:32.617Z,99195.38
2023-03-28T01:29:27.697Z,99196.09
2023-03-28T01:32:39.157Z,99187.31
2023-03-28T01:35:24.997Z,99196.56
2023-03-28T01:38:04.176Z,99194.88
2023-03-28T01:41:11.628Z,99193.06
2023-03-28T01:44:04.778Z,99192.03
2023-03-28T01:46:44.559Z,99192.81
2023-03-28T01:49:20.323Z,99194.53
2023-03-28T01:52:02.482Z,99197.06
2023-03-28T01:54:52.438Z,99197.03
2023-03-28T01:57:26.625Z,99194.19
2023-03-28T02:00:15.849Z,99202.72
2023-03-28T02:03:05.909Z,99203.97
2023-03-28T02:05:41.653Z,99205.53
2023-03-28T02:08:14.336Z,99180.91
2023-03-28T02:10:47.025Z,99196.63
2023-03-28T02:13:56.250Z,99190.69
2023-03-28T02:17:04.869Z,99215.78
2023-03-28T02:19:55.554Z,99225.91
2023-03-28T02:22:45.242Z,99201.47
2023-03-28T02:25:36.656Z,99225.59
2023-03-28T02:28:24.213Z,99213.44
2023-03-28T02:31:11.562Z,99228.13
2023-03-28T02:33:45.007Z,99235.16
2023-03-28T02:36:34.379Z,99229.75
2023-03-28T02:39:15.043Z,99220.69
2023-03-28T02:42:03.344Z,99235.44
2023-03-28T02:44:44.727Z,99239.03
2023-03-28T02:47:29.992Z,99239.03
2023-03-28T02:50:15.126Z,99239.81
2023-03-28T02:52:52.550Z,99248.25
2023-03-28T02:55:34.525Z,99251.66
2023-03-28T02:59:24.606Z,99250.88
2023-03-28T03:01:52.058Z,99255.56
2023-03-28T03:04:19.331Z,99250.31
2023-03-28T03:06:46.413Z,99239.75
2023-03-28T03:09:13.396Z,99253.66
2023-03-28T03:11:42.652Z,99269.22
2023-03-28T03:14:09.735Z,99269.13
2023-03-28T03:16:38.765Z,99262.88
2023-03-28T03:19:07.759Z,99269.44
2023-03-28T03:21:36.603Z,99281.22
2023-03-28T03:24:04.322Z,99277.72
2023-03-28T03:26:31.606Z,99285.47
2023-03-28T03:29:01.710Z,99290.91
2023-03-28T03:31:32.249Z,99291.84
2023-03-28T03:34:02.232Z,99277.78
2023-03-28T03:36:34.210Z,99269.66
2023-03-28T03:39:01.699Z,99279.00
2023-03-28T03:41:29.558Z,99286.75
2023-03-28T03:43:56.522Z,99293.78
2023-03-28T03:46:23.656Z,99287.44
2023-03-28T03:48:52.057Z,99300.34
2023-03-28T03:51:19.250Z,99301.38
2023-03-28T03:53:50.878Z,99307.75
2023-03-28T03:56:21.331Z,99304.16
2023-03-28T03:59:00.501Z,99282.13
2023-03-28T04:01:31.180Z,99294.84
2023-03-28T04:04:24.512Z,99314.78
2023-03-28T04:07:15.549Z,99318.56
2023-03-28T04:09:43.410Z,99311.06
2023-03-28T04:12:11.638Z,99302.41
2023-03-28T04:14:45.940Z,99305.19
2023-03-28T04:17:35.011Z,99297.59
2023-03-28T04:20:17.548Z,99298.75
2023-03-28T04:23:06.228Z,99322.28
2023-03-28T04:25:34.961Z,99314.63
2023-03-28T04:28:16.929Z,99316.38
2023-03-28T04:31:00.275Z,99307.06
2023-03-28T04:33:45.886Z,99311.41
2023-03-28T04:36:18.767Z,99303.50
2023-03-28T04:38:58.340Z,99265.16
2023-03-28T04:41:46.280Z,99300.97
2023-03-28T04:44:29.419Z,99312.22
2023-03-28T04:47:03.484Z,99321.19
2023-03-28T04:49:31.520Z,99304.66
2023-03-28T04:51:58.557Z,99314.31
2023-03-28T04:54:25.664Z,99326.69
2023-03-28T04:57:08.259Z,99326.91
2023-03-28T04:59:42.479Z,99321.03
2023-03-28T05:02:11.711Z,99333.44
2023-03-28T05:04:58.908Z,99329.41
2023-03-28T05:07:26.424Z,99335.03
2023-03-28T05:09:54.134Z,99332.78
2023-03-28T05:12:21.380Z,99337.19
2023-03-28T05:15:03.228Z,99338.56
2023-03-28T05:17:31.342Z,99342.47
2023-03-28T05:20:09.979Z,99341.22
2023-03-28T05:22:47.498Z,99331.91
2023-03-28T05:25:14.544Z,99338.03
2023-03-28T05:27:41.937Z,99347.22
2023-03-28T05:30:10.474Z,99351.03
2023-03-28T05:32:38.918Z,99347.69
2023-03-28T05:35:12.753Z,99354.69
2023-03-28T05:37:41.817Z,99339.97
2023-03-28T05:40:12.034Z,99346.91
2023-03-28T05:42:41.536Z,99353.84
2023-03-28T05:45:15.585Z,99359.03
2023-03-28T05:48:06.329Z,99362.44
2023-03-28T05:50:36.504Z,99363.25
2023-03-28T05:53:06.934Z,99356.19
2023-03-28T05:55:35.655Z,99355.47
2023-03-28T05:58:04.472Z,99356.34
2023-03-28T06:00:37.667Z,99350.31
2023-03-28T06:03:07.889Z,99368.56
2023-03-28T06:05:39.083Z,99371.22
2023-03-28T06:08:18.257Z,99372.06
2023-03-28T06:10:45.321Z,99360.78
2023-03-28T06:13:34.772Z,99373.78
2023-03-28T06:16:03.011Z,99363.34
2023-03-28T06:18:33.349Z,99385.91
2023-03-28T06:21:01.158Z,99385.00
2023-03-28T06:23:28.780Z,99384.91
2023-03-28T06:25:56.908Z,99367.53
2023-03-28T06:28:25.561Z,99395.25
2023-03-28T06:31:15.874Z,99357.09
2023-03-28T06:33:44.481Z,99398.00
2023-03-28T06:36:12.188Z,99388.50
2023-03-28T06:38:39.261Z,99360.78
2023-03-28T06:41:06.635Z,99392.00
2023-03-28T06:43:35.807Z,99401.50
2023-03-28T06:46:13.826Z,99391.78
2023-03-28T06:48:44.548Z,99384.78
2023-03-28T06:51:40.873Z,99393.31
2023-03-28T06:54:07.829Z,99394.88
2023-03-28T06:56:34.997Z,99393.94
2023-03-28T06:59:02.070Z,99393.06
2023-03-28T07:01:32.147Z,99396.22
2023-03-28T07:04:09.661Z,99376.66
2023-03-28T07:06:37.526Z,99400.66
2023-03-28T07:09:06.345Z,99401.72
2023-03-28T07:11:40.556Z,99396.75
2023-03-28T07:14:07.579Z,99407.72
2023-03-28T07:16:34.585Z,99405.94
2023-03-28T07:19:01.566Z,99406.53
2023-03-28T07:21:32.978Z,99407.84
2023-03-28T07:24:02.638Z,99409.06
2023-03-28T07:26:39.288Z,99404.94
2023-03-28T07:29:08.871Z,99393.63
2023-03-28T07:31:36.225Z,99404.28
2023-03-28T07:34:03.447Z,99402.06
2023-03-28T07:36:30.581Z,99407.00
2023-03-28T07:39:06.725Z,99416.41
2023-03-28T07:41:33.978Z,99407.63
2023-03-28T07:44:01.191Z,99414.13
2023-03-28T07:46:28.445Z,99421.66
2023-03-28T07:48:56.908Z,99419.47
2023-03-28T07:51:24.444Z,99428.03
2023-03-28T07:53:51.926Z,99415.13
2023-03-28T07:56:18.977Z,99430.88
2023-03-28T07:59:10.469Z,99423.16
2023-03-28T08:01:38.243Z,99424.09
2023-03-28T08:04:05.360Z,99426.75
2023-03-28T08:07:02.395Z,99425.00
2023-03-28T08:09:29.416Z,99430.25
2023-03-28T08:12:09.263Z,99428.47
2023-03-28T08:14:36.249Z,99412.81
2023-03-28T08:17:03.723Z,99421.53
2023-03-28T08:19:33.451Z,99425.88
2023-03-28T08:22:12.774Z,99424.97
2023-03-28T08:24:57.157Z,99440.66
2023-03-28T08:27:24.990Z,99429.38
2023-03-28T08:29:58.217Z,99436.31
2023-03-28T08:32:27.053Z,99422.41
2023-03-28T08:34:57.821Z,99446.69
2023-03-28T08:37:27.964Z,99422.34
2023-03-28T08:39:56.070Z,99424.16
2023-03-28T08:42:23.304Z,99417.22
2023-03-28T08:45:16.525Z,99435.44
2023-03-28T08:48:21.503Z,99413.69
2023-03-28T08:51:06.971Z,99417.97
2023-03-28T08:53:41.075Z,99398.97
2023-03-28T08:56:09.033Z,99422.41
2023-03-28T08:58:51.550Z,99421.56
2023-03-28T09:01:22.314Z,99418.91
2023-03-28T09:03:50.501Z,99425.00
2023-03-28T09:06:29.625Z,99428.44
2023-03-28T09:09:08.575Z,99416.31
2023-03-28T09:12:02.586Z,99424.13
2023-03-28T09:14:45.702Z,99421.56
2023-03-28T09:17:31.408Z,99433.69
2023-03-28T09:20:11.559Z,99438.84
2023-03-28T09:23:24.730Z,99424.69
2023-03-28T09:26:17.261Z,99429.81
2023-03-28T09:29:10.453Z,99426.06
2023-03-28T09:31:46.849Z,99418.63
2023-03-28T09:34:27.776Z,99421.22
2023-03-28T09:37:38.211Z,99423.19
2023-03-28T09:40:19.469Z,99427.41
2023-03-28T09:43:36.742Z,99424.47
2023-03-28T09:46:30.428Z,99416.56
2023-03-28T09:49:25.312Z,99411.06
2023-03-28T09:52:23.928Z,99407.66
2023-03-28T09:54:51.232Z,99416.84
2023-03-28T09:57:18.228Z,99411.66
2023-03-28T09:59:58.793Z,99337.81
2023-03-28T10:02:33.982Z,99412.91
2023-03-28T10:05:34.180Z,99366.00
2023-03-28T10:08:40.372Z,99422.59
2023-03-28T10:11:24.034Z,99424.41
2023-03-28T10:13:53.350Z,99420.03
2023-03-28T10:16:29.225Z,99438.81
2023-03-28T10:19:14.134Z,99434.53
2023-03-28T10:22:12.984Z,99411.13
2023-03-28T10:24:48.057Z,99435.41
2023-03-28T10:27:29.822Z,99430.97
2023-03-28T10:29:58.870Z,99424.16
2023-03-28T10:32:32.365Z,99417.19
2023-03-28T10:35:30.261Z,99411.94
2023-03-28T10:38:20.328Z,99438.72
2023-03-28T10:41:27.724Z,99428.97
2023-03-28T10:44:27.302Z,99420.34
2023-03-28T10:47:16.541Z,99409.97
2023-03-28T10:49:54.151Z,99421.50
2023-03-28T10:52:33.946Z,99433.69
2023-03-28T10:55:13.962Z,99402.38
2023-03-28T10:58:15.813Z,99414.28
2023-03-28T11:01:04.688Z,99427.84
2023-03-28T11:03:46.892Z,99427.56
2023-03-28T11:06:41.381Z,99424.22
2023-03-28T11:09:22.461Z,99418.13
2023-03-28T11:12:55.509Z,99421.78
2023-03-28T11:15:44.725Z,99428.22
2023-03-28T11:18:33.139Z,99419.53
2023-03-28T11:21:27.059Z,99430.19
2023-03-28T11:24:27.998Z,99431.09
2023-03-28T11:27:16.072Z,99427.63
2023-03-28T11:30:18.528Z,99416.28
2023-03-28T11:33:11.346Z,99423.25
2023-03-28T11:35:44.399Z,99415.47
2023-03-28T11:38:37.074Z,99412.00
2023-03-28T11:41:19.215Z,99405.06
2023-03-28T11:44:22.095Z,99404.19
2023-03-28T11:46:55.970Z,99386.81
2023-03-28T11:49:46.010Z,99401.56
2023-03-28T11:52:44.685Z,99398.09
2023-03-28T11:55:19.054Z,99392.00
2023-03-28T11:57:55.064Z,99391.16
2023-03-28T12:00:49.040Z,99381.59
2023-03-28T12:03:54.734Z,99381.63
2023-03-28T12:06:32.983Z,99362.50
2023-03-28T12:09:08.103Z,99382.38
2023-03-28T12:11:43.195Z,99346.72
2023-03-28T12:14:22.536Z,99372.91
2023-03-28T12:16:53.364Z,99376.38
2023-03-28T12:19:34.030Z,99383.25
2023-03-28T12:22:16.354Z,99385.84
2023-03-28T12:24:54.830Z,99361.44
2023-03-28T12:27:39.018Z,99382.03
2023-03-28T12:30:21.342Z,99372.63
2023-03-28T12:33:05.440Z,99363.91
2023-03-28T12:35:39.810Z,99374.31
2023-03-28T12:38:34.230Z,99366.59
2023-03-28T12:41:26.778Z,99371.88
2023-03-28T12:43:59.585Z,99371.00
2023-03-28T12:46:46.382Z,99365.84
2023-03-28T12:49:19.013Z,99373.63
2023-03-28T12:51:53.503Z,99367.53
2023-03-28T12:54:31.965Z,99360.59
2023-03-28T12:57:07.810Z,99357.16
2023-03-28T13:00:07.900Z,99325.97
2023-03-28T13:02:58.407Z,99352.94
2023-03-28T13:05:38.750Z,99319.13
2023-03-28T13:08:46.605Z,99354.69
2023-03-28T13:11:20.209Z,99366.84
2023-03-28T13:14:12.354Z,99352.09
2023-03-28T13:17:01.643Z,99332.13
2023-03-28T13:19:44.557Z,99329.53
2023-03-28T13:22:33.434Z,99333.88
2023-03-28T13:25:32.682Z,99346.91
2023-03-28T13:28:11.763Z,99339.91
2023-03-28T13:30:46.375Z,99298.22
2023-03-28T13:33:24.289Z,99331.22
2023-03-28T13:36:00.693Z,99330.34
2023-03-28T13:38:27.911Z,99328.63
2023-03-28T13:41:06.434Z,99336.38
2023-03-28T13:43:35.867Z,99338.09
2023-03-28T13:46:15.291Z,99312.97
2023-03-28T13:49:10.436Z,99333.75
2023-03-28T13:51:43.404Z,99332.00
2023-03-28T13:54:11.928Z,99280.81
2023-03-28T13:56:43.716Z,99323.38
2023-03-28T13:59:22.056Z,99330.28
2023-03-28T14:01:53.895Z,99333.75
2023-03-28T14:04:26.663Z,99321.63
2023-03-28T14:06:55.684Z,99322.34
2023-03-28T14:09:28.961Z,99325.78
2023-03-28T14:12:09.858Z,99313.63
2023-03-28T14:14:42.788Z,99320.53
2023-03-28T14:17:17.614Z,99306.63
2023-03-28T14:19:53.230Z,99289.31
2023-03-28T14:22:24.303Z,99268.38
2023-03-28T14:24:54.292Z,99268.38
2023-03-28T14:27:37.352Z,99283.16
2023-03-28T14:30:16.658Z,99305.81
2023-03-28T14:32:57.577Z,99313.56
2023-03-28T14:35:28.557Z,99312.66
2023-03-28T14:37:58.178Z,99303.97
2023-03-28T14:40:25.055Z,99310.06
2023-03-28T14:42:59.841Z,99298.81
2023-03-28T14:45:28.675Z,99309.97
2023-03-28T14:47:57.530Z,99310.03
2023-03-28T14:50:29.642Z,99298.81
2023-03-28T14:53:08.018Z,99309.97
2023-03-28T14:55:37.735Z,99313.47
2023-03-28T14:58:12.878Z,99301.25
2023-03-28T15:00:48.707Z,99314.22
2023-03-28T15:03:19.068Z,99323.75
2023-03-28T15:05:49.958Z,99310.66
2023-03-28T15:08:31.691Z,99320.09
2023-03-28T15:11:06.572Z,99319.22
2023-03-28T15:13:38.949Z,99321.00
2023-03-28T15:16:08.268Z,99318.34
2023-03-28T15:18:47.244Z,99319.22
2023-03-28T15:21:15.341Z,99312.25
2023-03-28T15:23:59.577Z,99263.44
2023-03-28T15:26:51.224Z,99323.13
2023-03-28T15:29:21.765Z,99319.66
2023-03-28T15:31:49.109Z,99330.06
2023-03-28T15:34:26.390Z,99312.84
2023-03-28T15:37:06.982Z,99309.31
2023-03-28T15:39:36.107Z,99314.50
2023-03-28T15:42:24.404Z,99311.06
2023-03-28T15:44:57.076Z,99313.66
2023-03-28T15:47:27.183Z,99311.94
2023-03-28T15:50:12.848Z,99317.16
2023-03-28T15:52:42.767Z,99307.59
2023-03-28T15:55:20.846Z,99270.22
2023-03-28T15:57:48.383Z,99311.91
2023-03-28T16:00:46.462Z,99317.91
2023-03-28T16:03:16.552Z,99310.84
2023-03-28T16:05:50.621Z,99308.91
2023-03-28T16:08:25.736Z,99302.88
2023-03-28T16:10:52.721Z,99314.16
2023-03-28T16:13:40.122Z,99317.41
2023-03-28T16:16:08.123Z,99313.94
2023-03-28T16:18:48.234Z,99320.91
2023-03-28T16:21:16.275Z,99322.56
2023-03-28T16:23:43.360Z,99313.13
2023-03-28T16:26:11.304Z,99321.72
2023-03-28T16:28:38.412Z,99333.69
2023-03-28T16:31:05.865Z,99338.00
2023-03-28T16:33:32.863Z,99316.44
2023-03-28T16:36:00.386Z,99322.47
2023-03-28T16:38:27.946Z,99330.97
2023-03-28T16:40:54.994Z,99332.56
2023-03-28T16:43:21.937Z,99336.91
2023-03-28T16:45:50.294Z,99332.47
2023-03-28T16:48:17.466Z,99292.53
2023-03-28T16:50:59.408Z,99354.16
2023-03-28T16:53:26.416Z,99352.47
2023-03-28T16:55:53.491Z,99355.72
2023-03-28T16:58:20.550Z,99358.13
2023-03-28T17:00:50.791Z,99358.03
2023-03-28T17:03:18.210Z,99359.50
2023-03-28T17:05:45.385Z,99343.06
2023-03-28T17:08:12.462Z,99353.41
2023-03-28T17:10:43.566Z,99338.72
2023-03-28T17:13:11.273Z,99314.38
2023-03-28T17:15:38.328Z,99354.16
2023-03-28T17:18:08.180Z,99282.03
2023-03-28T17:20:35.554Z,99345.19
2023-03-28T17:23:04.913Z,99341.00
2023-03-28T17:25:36.788Z,99346.91
2023-03-28T17:28:08.917Z,99352.81
2023-03-28T17:30:37.324Z,99339.75
2023-03-28T17:33:04.941Z,99349.00
2023-03-28T17:35:32.187Z,99356.91
2023-03-28T17:37:59.231Z,99350.94
2023-03-28T17:40:26.587Z,99356.84
2023-03-28T17:42:53.694Z,99359.47
2023-03-28T17:45:21.155Z,99355.97
2023-03-28T17:47:48.737Z,99355.22
2023-03-28T17:50:15.820Z,99360.31
2023-03-28T17:52:42.884Z,99356.84
2023-03-28T17:55:09.967Z,99356.78
2023-03-28T17:57:37.161Z,99349.72
2023-03-28T18:00:06.736Z,99355.97
2023-03-28T18:02:45.956Z,99298.94
2023-03-28T18:05:33.570Z,99347.75
2023-03-28T18:08:01.059Z,99348.50
2023-03-28T18:10:28.058Z,99350.13
2023-03-28T18:12:55.065Z,99359.59
2023-03-28T18:15:22.033Z,99347.47
2023-03-28T18:17:49.116Z,99334.50
2023-03-28T18:20:16.339Z,99346.72
2023-03-28T18:22:43.492Z,99352.69
2023-03-28T18:25:10.799Z,99352.78
2023-03-28T18:27:38.319Z,99365.63
2023-03-28T18:30:08.431Z,99349.34
2023-03-28T18:32:36.710Z,99359.94
2023-03-28T18:35:07.289Z,99370.38
2023-03-28T18:37:34.547Z,99370.03
2023-03-28T18:40:01.847Z,99318.72
2023-03-28T18:42:30.655Z,99348.44
2023-03-28T18:44:57.999Z,99347.41
2023-03-28T18:47:25.134Z,99353.63
2023-03-28T18:49:52.439Z,99362.03
2023-03-28T18:52:19.545Z,99359.66
2023-03-28T18:54:48.179Z,99356.34
2023-03-28T18:57:16.165Z,99356.25
2023-03-28T18:59:43.197Z,99357.31
2023-03-28T19:02:13.896Z,99349.59
2023-03-28T19:04:40.949Z,99354.66
2023-03-28T19:07:08.625Z,99358.78
2023-03-28T19:09:36.026Z,99350.09
2023-03-28T19:12:03.110Z,99357.09
2023-03-28T19:14:30.663Z,99351.09
2023-03-28T19:16:57.735Z,99349.38
2023-03-28T19:19:25.042Z,99340.56
2023-03-28T19:21:52.709Z,99347.38
2023-03-28T19:24:23.542Z,99344.78
2023-03-28T19:26:51.137Z,99341.22
2023-03-28T19:29:18.132Z,99337.66
2023-03-28T19:31:46.016Z,99335.66
2023-03-28T19:34:17.646Z,99344.63
2023-03-28T19:36:44.918Z,99349.81
2023-03-28T19:39:12.598Z,99335.31
2023-03-28T19:41:40.007Z,99358.78
2023-03-28T19:44:07.192Z,99334.50
2023-03-28T19:46:36.367Z,99356.03
2023-03-28T19:49:06.573Z,99354.28
2023-03-28T19:51:34.449Z,99358.41
2023-03-28T19:54:01.632Z,99355.78
2023-03-28T19:56:29.064Z,99359.84
2023-03-28T19:58:56.229Z,99353.97
2023-03-28T20:01:23.291Z,99357.09
2023-03-28T20:03:53.243Z,99349.44
2023-03-28T20:06:22.451Z,99352.13
2023-03-28T20:08:50.810Z,99355.44
2023-03-28T20:11:18.025Z,99352.03
2023-03-28T20:13:45.206Z,99335.84
2023-03-28T20:16:13.272Z,99340.25
2023-03-28T20:18:41.080Z,99349.03
2023-03-28T20:21:11.095Z,99342.66
2023-03-28T20:23:38.355Z,99351.09
2023-03-28T20:26:19.961Z,99334.75
2023-03-28T20:28:49.970Z,99348.56
2023-03-28T20:31:18.436Z,99349.53
2023-03-28T20:33:46.293Z,99348.69
2023-03-28T20:36:13.461Z,99350.63
2023-03-28T20:38:40.606Z,99347.06
2023-03-28T20:41:12.538Z,99352.13
2023-03-28T20:43:40.995Z,99331.28
2023-03-28T20:46:09.831Z,99344.28
2023-03-28T20:48:37.040Z,99341.94
2023-03-28T20:51:19.294Z,99340.25
2023-03-28T20:54:00.623Z,99343.63
2023-03-28T20:56:30.074Z,99329.88
2023-03-28T20:58:58.931Z,99334.84
2023-03-28T21:01:28.479Z,99325.50
2023-03-28T21:03:58.302Z,99328.06
2023-03-28T21:06:29.042Z,99322.78
2023-03-28T21:09:01.949Z,99328.03
2023-03-28T21:11:31.620Z,99320.16
2023-03-28T21:14:00.480Z,99318.66
2023-03-28T21:16:29.124Z,99298.53
2023-03-28T21:18:56.274Z,99292.06
2023-03-28T21:21:23.685Z,99312.16
2023-03-28T21:23:53.262Z,99316.47
2023-03-28T21:26:23.056Z,99314.72
2023-03-28T21:28:52.469Z,99317.97
2023-03-28T21:31:22.114Z,99319.66
2023-03-28T21:33:49.213Z,99318.75
2023-03-28T21:36:18.326Z,99316.56
2023-03-28T21:38:46.866Z,99315.81
2023-03-28T21:41:14.076Z,99297.63
2023-03-28T21:43:41.214Z,99289.00
2023-03-28T21:46:09.394Z,99291.47
2023-03-28T21:48:36.895Z,99300.97
2023-03-28T21:51:04.827Z,99307.81
2023-03-28T21:53:37.226Z,99307.47
2023-03-28T21:56:04.913Z,99291.06
2023-03-28T21:58:33.469Z,99238.72
2023-03-28T22:01:02.857Z,99303.22
2023-03-28T22:03:31.061Z,99300.84
2023-03-28T22:05:58.392Z,99298.88
2023-03-28T22:08:25.639Z,99299.84
2023-03-28T22:10:56.758Z,99287.84
2023-03-28T22:13:24.229Z,99290.53
2023-03-28T22:15:52.786Z,99264.66
2023-03-28T22:18:20.185Z,99281.16
2023-03-28T22:20:53.284Z,99285.28
2023-03-28T22:23:24.594Z,99274.78
2023-03-28T22:25:53.180Z,99280.94
2023-03-28T22:28:24.611Z,99278.41
2023-03-28T22:30:56.325Z,99272.09
2023-03-28T22:33:25.405Z,99258.97
2023-03-28T22:35:53.184Z,99259.03
2023-03-28T22:38:20.408Z,99257.56
2023-03-28T22:40:47.777Z,99264.34
2023-03-28T22:43:15.601Z,99257.44
2023-03-28T22:45:43.094Z,99240.94
2023-03-28T22:48:16.246Z,99250.50
2023-03-28T22:50:47.323Z,99247.00
2023-03-28T22:53:15.233Z,99241.75
2023-03-28T22:55:43.909Z,99248.56
2023-03-28T22:58:11.863Z,99222.22
2023-03-28T23:00:39.008Z,99243.94
2023-03-28T23:03:08.064Z,99248.53
2023-03-28T23:05:35.797Z,99256.50
2023-03-28T23:08:02.991Z,99246.91
2023-03-28T23:10:30.009Z,99248.28
2023-03-28T23:12:56.984Z,99191.66
2023-03-28T23:15:24.197Z,99238.72
2023-03-28T23:17:52.213Z,99248.25
2023-03-28T23:20:19.786Z,99247.63
2023-03-28T23:22:48.650Z,99241.59
2023-03-28T23:25:18.811Z,99238.91
2023-03-28T23:27:46.637Z,99236.16
2023-03-28T23:30:15.273Z,99235.28
2023-03-28T23:32:42.411Z,99237.25
2023-03-28T23:35:10.835Z,99242.59
2023-03-28T23:37:38.546Z,99240.97
2023-03-28T23:40:10.624Z,99233.25
2023-03-28T23:42:39.155Z,99247.88
2023-03-28T23:45:06.901Z,99241.09
2023-03-28T23:47:33.967Z,99239.59
2023-03-28T23:50:00.958Z,99233.56
2023-03-28T23:52:27.938Z,99217.72
2023-03-28T23:54:54.912Z,99214.97
2023-03-28T23:57:25.343Z,99180.34
2023-03-28T23:59:52.416Z,99216.09
